Terminal Aerodrome Forecast
Issued by NWS

Home | Current Version | Previous Version | Text Only | Print | Product List | Glossary Off
Versions: 1 2 3 4 5 6 7 8 9 10 11 12

000
FTUS42 KMHX 261100
TAFOAJ
TAF
KOAJ 261121Z 2612/2712 00000KT P6SM SKC
     FM261300 VRB03KT P6SM SCT250
     FM270600 00000KT 4SM BR SCT250
      AMD LTD TO CLD VIS AND WIND=

USA.gov is the U.S. government's official web portal to all federal, state and local government web resources and services.